Rosamond, CA (93560)

8:38 PM PDT on March 22, 2017 (GMT -0700)
Rosamond - KI6VBC | | Change Station

Elev 2415 ft 34.87 °N, 118.15 °W | Updated 8 minutes ago

Mostly Cloudy
Mostly Cloudy
49.1 °F
Feels Like 49 °F
N
0.0
Wind Variable Wind from North
Gusts 0.0 mph

Today
High -- | Low -- °F
--% Chance of Precip.
Yesterday
High -- | Low -- °F
Precip. -- in
Pressure 29.97 in
Visibility 10.0 miles
Clouds Scattered Clouds 9000 ft
Mostly Cloudy 11000 ft
Windchill 49 °F
Dew Point 37 °F
Humidity 62%
Rainfall 0.00 in
Snow Depth Not available.
6:52 AM 7:06 PM
Waning Crescent, 27% visible
METAR KWJF 230256Z 26019KT 10SM SCT090 BKN110 09/04 A2996 RMK AO2 LTG DSNT S SLP149 60000 T00890044 55004
Pressure 29.97 in
Visibility 10.0 miles
Clouds Scattered Clouds 9000 ft
Mostly Cloudy 11000 ft
Windchill 49 °F
Dew Point 37 °F
Humidity 62%
Rainfall 0.00 in
Snow Depth Not available.
6:52 AM 7:06 PM
Waning Crescent, 27% visible
METAR KWJF 230256Z 26019KT 10SM SCT090 BKN110 09/04 A2996 RMK AO2 LTG DSNT S SLP149 60000 T00890044 55004

Get Severe Weather Alerts

Thanks for signing up!

Be on the lookout for a verification email in your inbox.

You'll start receiving the daily forecast at 8 AM.

×

10-Day Weather Forecast

Almanac

Astronomy

Mar. 22, 2017 Rise Set
Actual Time
Civil Twilight
Nautical Twilight
Astronomical Twilight
Moon
Length of Visible Light
Length of Day
Tomorrow will be .
, % of the Moon is Illuminated

Today's Extremes

State Highs State Lows

Community

WunderPhotos

Upload Photos

1,962,540 photos uploaded!

WunderBlog® & News

Nearby

Air Quality

  Air Quality AQ Index Pollutant
Not available.

Snow Depth

Station Depth Elevation

Earthquake Activity

City Distance Mag. Time & Date
Minimum magnitude displayed is 2.5.

Earthquake Activity

City Distance Mag. Time & Date
Minimum magnitude displayed is 2.5.

Coastal Water Temperatures

Place Temperature

Stations

Nearby Weather Stations

Station Location Temp. Windchill Dew Point Humidity Wind Precip. Elev Updated Type
                   

Watches & Warnings

There are currently no watches in effect.